Time;durP1;ratioP1;P1;durP2;ratioP2;P2;SDS_P1;SDS_P2;PMS_P1;PMS_P2;Temp;Humidity;BMP_temperature;BMP_pressure;BME280_temperature;BME280_humidity;BME280_pressure;Samples;Min_cycle;Max_cycle;Signal;HPM_P1;HPM_P2
2023/07/10 00:00:27;;;;;;;7.32;3.10;;;;;;;;;;8323216;28;20033;-72
2023/07/10 00:04:27;;;;;;;4.87;3.00;;;;;;;;;;8301035;28;20053;-72
2023/07/10 00:08:27;;;;;;;3.70;2.50;;;;;;;;;;8302758;28;20295;-72
2023/07/10 00:12:28;;;;;;;4.95;2.70;;;;;;;;;;8319189;28;20035;-72
2023/07/10 00:16:28;;;;;;;5.77;2.50;;;;;;;;;;8321085;28;20036;-72
2023/07/10 00:20:28;;;;;;;4.07;2.53;;;;;;;;;;8317758;28;20040;-72
2023/07/10 00:24:28;;;;;;;6.32;2.80;;;;;;;;;;8320658;28;20056;-72
2023/07/10 00:28:28;;;;;;;7.30;2.67;;;;;;;;;;8318846;28;20021;-72
2023/07/10 00:32:29;;;;;;;4.30;2.70;;;;;;;;;;8319867;28;20391;-72
2023/07/10 00:36:30;;;;;;;4.80;2.63;;;;;;;;;;8316555;28;20025;-72
2023/07/10 00:40:32;;;;;;;3.60;2.63;;;;;;;;;;8321210;28;20029;-72
2023/07/10 00:44:33;;;;;;;6.45;2.60;;;;;;;;;;8318862;28;20029;-72
2023/07/10 00:48:41;;;;;;;3.97;2.80;;;;;;;;;;8320150;28;20033;-72
2023/07/10 00:52:43;;;;;;;6.80;2.85;;;;;;;;;;8321621;28;20024;-72
2023/07/10 00:56:45;;;;;;;7.25;2.97;;;;;;;;;;8318216;28;20028;-72
2023/07/10 01:01:03;;;;;;;9.73;3.10;;;;;;;;;;8321054;28;20514;-72
2023/07/10 01:05:04;;;;;;;5.95;3.15;;;;;;;;;;8324672;28;20021;-72
2023/07/10 01:09:06;;;;;;;3.40;2.45;;;;;;;;;;8309554;28;20083;-73
2023/07/10 01:13:06;;;;;;;3.70;2.50;;;;;;;;;;8328098;28;20386;-72
2023/07/10 01:17:07;;;;;;;4.07;2.67;;;;;;;;;;8328402;28;20033;-72
2023/07/10 01:21:24;;;;;;;4.00;2.72;;;;;;;;;;8328709;28;20131;-72
2023/07/10 01:25:24;;;;;;;3.65;2.53;;;;;;;;;;8329014;28;20021;-72
2023/07/10 01:29:27;;;;;;;4.32;3.10;;;;;;;;;;8328090;28;20025;-72
2023/07/10 01:33:31;;;;;;;2.58;2.35;;;;;;;;;;8328802;28;20082;-72
2023/07/10 01:37:31;;;;;;;4.72;2.47;;;;;;;;;;8327708;28;20873;-72
2023/07/10 01:41:39;;;;;;;4.07;2.45;;;;;;;;;;8308629;28;20048;-72
2023/07/10 01:45:41;;;;;;;4.75;2.80;;;;;;;;;;8325701;28;20124;-72
2023/07/10 01:49:42;;;;;;;4.05;2.70;;;;;;;;;;8328429;28;20017;-72
2023/07/10 01:53:44;;;;;;;4.13;2.80;;;;;;;;;;8326754;28;20047;-72
2023/07/10 01:57:45;;;;;;;2.92;2.25;;;;;;;;;;8327554;28;20876;-72
2023/07/10 02:01:45;;;;;;;3.42;2.65;;;;;;;;;;8325810;28;20081;-72
2023/07/10 02:05:45;;;;;;;6.00;2.70;;;;;;;;;;8324821;28;20032;-72
2023/07/10 02:09:47;;;;;;;3.92;2.72;;;;;;;;;;8314048;28;20097;-72
2023/07/10 02:13:47;;;;;;;4.38;3.00;;;;;;;;;;8325911;28;20029;-71
2023/07/10 02:17:47;;;;;;;5.05;3.00;;;;;;;;;;8323923;28;20426;-71
2023/07/10 02:21:47;;;;;;;4.77;2.87;;;;;;;;;;8327492;28;20035;-71
2023/07/10 02:25:48;;;;;;;4.57;2.70;;;;;;;;;;8327775;28;20095;-72
2023/07/10 02:29:48;;;;;;;4.97;2.50;;;;;;;;;;8324051;28;20025;-72
2023/07/10 02:33:48;;;;;;;6.65;2.75;;;;;;;;;;8325935;28;20120;-72
2023/07/10 02:37:48;;;;;;;5.20;3.37;;;;;;;;;;8325190;28;20843;-72
2023/07/10 02:41:48;;;;;;;7.80;3.15;;;;;;;;;;8325711;28;21056;-72
2023/07/10 02:45:49;;;;;;;5.90;2.90;;;;;;;;;;8305558;28;20033;-72
2023/07/10 02:49:49;;;;;;;4.27;2.73;;;;;;;;;;8313448;28;20025;-71
2023/07/10 02:53:50;;;;;;;4.45;2.90;;;;;;;;;;8325437;28;20267;-72
2023/07/10 02:57:51;;;;;;;8.00;3.40;;;;;;;;;;8306968;28;20120;-71
2023/07/10 03:01:51;;;;;;;6.43;2.97;;;;;;;;;;8323257;28;20466;-72
2023/07/10 03:05:58;;;;;;;4.90;2.80;;;;;;;;;;8323865;28;20025;-72
2023/07/10 03:09:59;;;;;;;4.75;2.40;;;;;;;;;;8327943;28;20056;-72
2023/07/10 03:14:01;;;;;;;5.88;3.05;;;;;;;;;;8325854;28;20024;-72
2023/07/10 03:18:01;;;;;;;4.40;3.03;;;;;;;;;;8325977;28;20033;-72
2023/07/10 03:22:01;;;;;;;6.78;3.10;;;;;;;;;;8323099;28;20053;-71
2023/07/10 03:26:02;;;;;;;5.13;2.60;;;;;;;;;;8305292;28;20078;-71
2023/07/10 03:30:02;;;;;;;5.80;2.88;;;;;;;;;;8324523;28;20036;-71
2023/07/10 03:34:02;;;;;;;3.93;2.83;;;;;;;;;;8325079;28;20040;-71
2023/07/10 03:38:03;;;;;;;5.22;3.00;;;;;;;;;;8324039;28;20728;-72
2023/07/10 03:42:03;;;;;;;6.87;3.03;;;;;;;;;;8324016;28;20033;-72
2023/07/10 03:46:03;;;;;;;5.60;3.17;;;;;;;;;;8322107;28;20029;-72
2023/07/10 03:50:05;;;;;;;4.10;3.07;;;;;;;;;;8326353;28;20497;-72
2023/07/10 03:54:07;;;;;;;5.40;3.10;;;;;;;;;;8324679;28;20449;-71
2023/07/10 03:58:16;;;;;;;4.40;2.67;;;;;;;;;;8320500;28;20398;-72
2023/07/10 04:02:17;;;;;;;4.93;2.80;;;;;;;;;;8322156;28;20037;-72
2023/07/10 04:06:17;;;;;;;10.07;3.13;;;;;;;;;;8322920;28;20139;-72
2023/07/10 04:10:17;;;;;;;7.13;3.00;;;;;;;;;;8324756;28;20932;-71
2023/07/10 04:14:18;;;;;;;5.72;3.20;;;;;;;;;;8322144;28;20091;-72
2023/07/10 04:18:18;;;;;;;9.33;3.27;;;;;;;;;;8320894;28;20124;-72
2023/07/10 04:22:18;;;;;;;7.47;3.17;;;;;;;;;;8321962;28;20033;-72
2023/07/10 04:26:28;;;;;;;15.88;3.28;;;;;;;;;;8318043;28;20036;-71
2023/07/10 04:30:31;;;;;;;12.70;3.70;;;;;;;;;;8322080;28;21087;-70
2023/07/10 04:34:31;;;;;;;14.45;3.45;;;;;;;;;;8322898;28;20040;-70
2023/07/10 04:38:31;;;;;;;11.73;3.90;;;;;;;;;;8319898;28;20028;-70
2023/07/10 04:42:31;;;;;;;12.23;3.40;;;;;;;;;;8301883;28;20017;-71
2023/07/10 04:46:32;;;;;;;11.73;3.53;;;;;;;;;;8321362;28;20899;-71
2023/07/10 04:50:32;;;;;;;7.30;3.25;;;;;;;;;;8304389;28;20032;-70
2023/07/10 04:54:32;;;;;;;13.73;3.45;;;;;;;;;;8318575;28;20124;-71
2023/07/10 04:58:52;;;;;;;12.57;3.40;;;;;;;;;;8318417;28;20033;-70
2023/07/10 05:02:53;;;;;;;7.32;3.42;;;;;;;;;;8319376;28;20152;-70
2023/07/10 05:06:57;;;;;;;6.65;3.35;;;;;;;;;;8320512;28;20502;-70
2023/07/10 05:10:58;;;;;;;8.65;3.40;;;;;;;;;;8321292;28;20029;-70
2023/07/10 05:14:58;;;;;;;6.20;3.15;;;;;;;;;;8319553;28;20550;-70
2023/07/10 05:18:58;;;;;;;6.93;3.00;;;;;;;;;;8319920;28;20052;-72
2023/07/10 05:22:58;;;;;;;8.48;3.30;;;;;;;;;;8316899;28;20234;-72
2023/07/10 05:26:58;;;;;;;7.95;3.50;;;;;;;;;;8317562;28;20938;-72
2023/07/10 05:30:59;;;;;;;5.25;3.78;;;;;;;;;;8318627;28;20452;-72
2023/07/10 05:34:59;;;;;;;4.60;3.65;;;;;;;;;;8319909;28;20029;-72
2023/07/10 05:39:00;;;;;;;8.20;5.05;;;;;;;;;;8318257;28;20040;-72
2023/07/10 05:43:00;;;;;;;7.03;4.82;;;;;;;;;;8305242;28;20832;-72
2023/07/10 05:47:00;;;;;;;5.70;4.40;;;;;;;;;;8321305;28;20108;-72
2023/07/10 05:51:01;;;;;;;7.13;4.90;;;;;;;;;;8307633;28;20116;-72
2023/07/10 05:55:02;;;;;;;7.20;5.10;;;;;;;;;;8329936;28;20037;-72
2023/07/10 05:59:02;;;;;;;7.20;4.78;;;;;;;;;;8327455;28;20028;-72
2023/07/10 06:03:03;;;;;;;7.87;5.30;;;;;;;;;;8325686;28;20047;-74
2023/07/10 06:07:04;;;;;;;8.48;5.60;;;;;;;;;;8313522;28;20118;-72
2023/07/10 06:11:05;;;;;;;8.57;5.82;;;;;;;;;;8327951;28;20110;-72
2023/07/10 06:15:05;;;;;;;8.55;5.53;;;;;;;;;;8309162;28;20397;-73
2023/07/10 06:19:06;;;;;;;9.95;7.25;;;;;;;;;;8328168;28;20060;-73
2023/07/10 06:23:06;;;;;;;8.77;5.97;;;;;;;;;;8321583;28;20021;-72
2023/07/10 06:27:07;;;;;;;9.07;6.65;;;;;;;;;;8311727;28;20032;-73
2023/07/10 06:31:08;;;;;;;9.98;7.85;;;;;;;;;;8322961;28;20832;-72
2023/07/10 06:35:12;;;;;;;12.02;8.50;;;;;;;;;;8325290;28;20041;-72
2023/07/10 06:39:13;;;;;;;12.40;9.40;;;;;;;;;;8306148;28;20025;-74
2023/07/10 06:43:13;;;;;;;8.98;7.65;;;;;;;;;;8324266;28;20617;-73
2023/07/10 06:47:13;;;;;;;9.98;8.35;;;;;;;;;;8322590;28;20041;-73
2023/07/10 06:51:14;;;;;;;10.67;7.83;;;;;;;;;;8321255;28;20037;-72
2023/07/10 06:55:16;;;;;;;10.35;8.20;;;;;;;;;;8324330;28;20032;-73
2023/07/10 06:59:21;;;;;;;12.68;10.35;;;;;;;;;;8322669;28;20032;-72
2023/07/10 07:03:21;;;;;;;12.50;10.48;;;;;;;;;;8323136;28;20041;-73
2023/07/10 07:07:21;;;;;;;11.27;9.07;;;;;;;;;;8321947;28;20036;-72
2023/07/10 07:11:22;;;;;;;9.68;8.50;;;;;;;;;;8308660;28;20025;-72
2023/07/10 07:15:22;;;;;;;11.87;9.00;;;;;;;;;;8323412;28;20047;-73
2023/07/10 07:19:22;;;;;;;10.23;8.05;;;;;;;;;;8323561;28;20135;-74
2023/07/10 07:23:22;;;;;;;8.23;7.30;;;;;;;;;;8322968;28;20032;-73
2023/07/10 07:27:23;;;;;;;11.43;8.27;;;;;;;;;;8322173;28;20028;-72
2023/07/10 07:31:23;;;;;;;9.38;7.20;;;;;;;;;;8323047;28;20049;-72
2023/07/10 07:35:23;;;;;;;8.13;7.00;;;;;;;;;;8321690;28;20094;-73
2023/07/10 07:39:28;;;;;;;10.30;6.77;;;;;;;;;;8321336;28;20581;-73
2023/07/10 07:43:28;;;;;;;7.57;6.45;;;;;;;;;;8320523;28;20421;-73
2023/07/10 07:47:29;;;;;;;9.18;6.35;;;;;;;;;;8320054;28;20029;-73
2023/07/10 07:51:29;;;;;;;9.48;6.43;;;;;;;;;;8322479;28;20702;-73
2023/07/10 07:55:29;;;;;;;7.65;5.97;;;;;;;;;;8320839;28;20021;-73
2023/07/10 07:59:30;;;;;;;8.38;5.75;;;;;;;;;;8321700;28;20086;-73
2023/07/10 08:03:33;;;;;;;7.50;5.17;;;;;;;;;;8318598;28;20033;-73
2023/07/10 08:07:33;;;;;;;5.72;5.10;;;;;;;;;;8317656;28;20029;-73
2023/07/10 08:11:33;;;;;;;6.20;4.90;;;;;;;;;;8320500;28;20040;-73
2023/07/10 08:15:33;;;;;;;5.80;4.50;;;;;;;;;;8322086;28;20036;-74
2023/07/10 08:19:33;;;;;;;11.50;5.05;;;;;;;;;;8321104;28;20029;-73
2023/07/10 08:23:34;;;;;;;7.43;5.10;;;;;;;;;;8314035;28;20025;-73
2023/07/10 08:27:34;;;;;;;7.57;4.93;;;;;;;;;;8315520;28;20032;-73
2023/07/10 08:31:34;;;;;;;6.35;4.90;;;;;;;;;;8313404;28;20119;-74
2023/07/10 08:35:35;;;;;;;5.07;4.57;;;;;;;;;;8306844;28;20120;-73
2023/07/10 08:39:35;;;;;;;5.90;4.03;;;;;;;;;;8318200;28;20414;-73
2023/07/10 08:43:37;;;;;;;6.32;4.32;;;;;;;;;;8301570;28;20029;-72
2023/07/10 08:47:41;;;;;;;6.40;4.15;;;;;;;;;;8317716;28;20108;-73
2023/07/10 08:51:47;;;;;;;5.43;3.80;;;;;;;;;;8317003;28;20624;-73
2023/07/10 08:55:53;;;;;;;8.15;4.03;;;;;;;;;;8301275;28;20079;-72
2023/07/10 08:59:58;;;;;;;7.72;4.10;;;;;;;;;;8321045;28;20021;-73
2023/07/10 09:04:00;;;;;;;7.25;4.32;;;;;;;;;;8320874;28;20047;-73
2023/07/10 09:08:05;;;;;;;5.07;3.78;;;;;;;;;;8318126;28;20017;-73
2023/07/10 09:12:26;;;;;;;6.40;3.65;;;;;;;;;;8319541;28;20029;-73
2023/07/10 09:16:27;;;;;;;5.40;3.92;;;;;;;;;;8306894;28;20036;-73
2023/07/10 09:20:27;;;;;;;4.90;4.10;;;;;;;;;;8320262;28;20087;-73
2023/07/10 09:24:27;;;;;;;7.05;3.85;;;;;;;;;;8321116;28;20099;-73
2023/07/10 09:28:27;;;;;;;5.05;3.53;;;;;;;;;;8326550;28;20032;-73
2023/07/10 09:32:34;;;;;;;6.43;3.30;;;;;;;;;;8327891;28;20104;-72
2023/07/10 09:36:34;;;;;;;4.57;3.17;;;;;;;;;;8325541;28;20020;-72
2023/07/10 09:40:37;;;;;;;5.40;3.03;;;;;;;;;;8325501;28;20051;-73
2023/07/10 09:44:39;;;;;;;4.78;2.90;;;;;;;;;;8321646;28;21106;-73
2023/07/10 09:48:40;;;;;;;7.15;2.97;;;;;;;;;;8324346;28;20034;-73
2023/07/10 09:52:40;;;;;;;6.87;3.00;;;;;;;;;;8326804;28;20124;-73
2023/07/10 09:56:41;;;;;;;5.50;3.00;;;;;;;;;;8323820;28;20027;-73
2023/07/10 10:00:45;;;;;;;5.70;2.90;;;;;;;;;;8324770;28;20041;-73
2023/07/10 10:04:50;;;;;;;4.53;3.10;;;;;;;;;;8321037;28;20839;-73
2023/07/10 10:08:51;;;;;;;4.60;2.55;;;;;;;;;;8320400;28;20761;-72
2023/07/10 10:12:58;;;;;;;4.20;2.77;;;;;;;;;;8322469;28;20508;-72
2023/07/10 10:17:01;;;;;;;4.22;2.55;;;;;;;;;;8324169;28;21397;-72
2023/07/10 10:21:02;;;;;;;3.75;2.60;;;;;;;;;;8324946;28;20032;-73
2023/07/10 10:25:10;;;;;;;4.22;2.30;;;;;;;;;;8322489;28;20052;-73
2023/07/10 10:29:29;;;;;;;4.57;2.20;;;;;;;;;;8305091;28;20052;-72
2023/07/10 10:33:32;;;;;;;3.67;2.10;;;;;;;;;;8322329;28;20667;-73
2023/07/10 10:37:33;;;;;;;3.63;3.05;;;;;;;;;;8321136;28;20029;-73
2023/07/10 10:41:50;;;;;;;3.50;3.20;;;;;;;;;;8318489;28;20035;-73
2023/07/10 10:45:52;;;;;;;5.38;3.20;;;;;;;;;;8319288;28;20128;-73
2023/07/10 10:50:07;;;;;;;4.40;3.00;;;;;;;;;;8320297;28;20033;-74
2023/07/10 10:54:07;;;;;;;3.50;3.20;;;;;;;;;;8319364;28;20636;-73
2023/07/10 10:58:10;;;;;;;3.13;2.85;;;;;;;;;;8306138;28;20029;-73
2023/07/10 11:02:14;;;;;;;5.15;3.13;;;;;;;;;;8318905;28;20111;-73
2023/07/10 11:06:33;;;;;;;4.22;2.95;;;;;;;;;;8320103;28;20196;-73
2023/07/10 11:10:36;;;;;;;5.70;2.85;;;;;;;;;;8317795;28;20025;-73
2023/07/10 11:14:36;;;;;;;3.58;2.60;;;;;;;;;;8320187;28;20032;-73
2023/07/10 11:18:38;;;;;;;4.60;2.30;;;;;;;;;;8316216;28;20033;-72
2023/07/10 11:22:47;;;;;;;2.05;1.85;;;;;;;;;;8317322;28;20028;-72
2023/07/10 11:26:51;;;;;;;2.03;1.83;;;;;;;;;;8309805;28;20037;-72
2023/07/10 11:31:11;;;;;;;1.98;1.80;;;;;;;;;;8305165;28;20350;-73
2023/07/10 11:35:13;;;;;;;2.20;2.00;;;;;;;;;;8306927;28;20741;-70
2023/07/10 11:39:18;;;;;;;2.05;1.85;;;;;;;;;;8317847;28;20094;-70
2023/07/10 11:43:27;;;;;;;3.03;1.67;;;;;;;;;;8318054;28;20028;-70
2023/07/10 11:47:29;;;;;;;10.57;2.03;;;;;;;;;;8317109;28;20076;-70
2023/07/10 11:51:33;;;;;;;1.83;1.70;;;;;;;;;;8314890;28;20587;-70
2023/07/10 11:55:41;;;;;;;5.50;1.75;;;;;;;;;;8318316;28;20024;-70
2023/07/10 11:59:44;;;;;;;1.80;1.70;;;;;;;;;;8315384;28;20029;-71
2023/07/10 12:03:45;;;;;;;1.88;1.70;;;;;;;;;;8313929;28;20159;-70
2023/07/10 12:07:59;;;;;;;3.17;2.00;;;;;;;;;;8317214;28;20044;-71
2023/07/10 12:11:59;;;;;;;2.75;1.92;;;;;;;;;;8317285;28;20031;-71
2023/07/10 12:16:09;;;;;;;2.43;1.90;;;;;;;;;;8297676;28;20040;-71
2023/07/10 12:20:22;;;;;;;7.75;2.08;;;;;;;;;;8315421;28;20040;-71
2023/07/10 12:24:22;;;;;;;2.72;2.00;;;;;;;;;;8318664;28;20040;-71
2023/07/10 12:28:23;;;;;;;2.67;1.80;;;;;;;;;;8319008;28;20025;-71
2023/07/10 12:32:24;;;;;;;2.97;2.00;;;;;;;;;;8318005;28;20041;-71
2023/07/10 12:36:26;;;;;;;2.30;2.10;;;;;;;;;;8315739;28;20032;-71
2023/07/10 12:40:28;;;;;;;2.42;1.75;;;;;;;;;;8296622;28;20086;-71
2023/07/10 12:44:29;;;;;;;3.55;2.00;;;;;;;;;;8316159;28;20036;-71
2023/07/10 12:48:31;;;;;;;2.65;2.10;;;;;;;;;;8314860;28;20037;-71
2023/07/10 12:52:35;;;;;;;2.40;1.98;;;;;;;;;;8317252;28;20206;-70
2023/07/10 12:56:38;;;;;;;4.78;2.20;;;;;;;;;;8316453;28;21264;-70
2023/07/10 13:00:44;;;;;;;3.58;2.00;;;;;;;;;;8327806;28;20122;-70
2023/07/10 13:04:46;;;;;;;4.22;2.10;;;;;;;;;;8328022;28;20039;-71
2023/07/10 13:08:47;;;;;;;2.58;1.98;;;;;;;;;;8307495;28;20013;-70
2023/07/10 13:12:50;;;;;;;;;;;;;;;;;;8316834;28;20114;-73
2023/07/10 13:16:51;;;;;;;6.47;2.00;;;;;;;;;;8321599;28;19927;-72
2023/07/10 13:20:51;;;;;;;4.13;2.00;;;;;;;;;;8319922;28;20036;-73
2023/07/10 13:24:51;;;;;;;3.63;2.03;;;;;;;;;;8328881;28;20508;-72
2023/07/10 13:28:54;;;;;;;5.05;2.17;;;;;;;;;;8323787;28;20044;-72
2023/07/10 13:32:54;;;;;;;4.10;2.10;;;;;;;;;;8325722;28;20084;-72
2023/07/10 13:36:54;;;;;;;2.00;1.90;;;;;;;;;;8326379;28;20035;-72
2023/07/10 13:40:54;;;;;;;2.05;1.80;;;;;;;;;;8326123;28;20123;-72
2023/07/10 13:44:55;;;;;;;4.28;1.98;;;;;;;;;;8320086;28;20077;-72
2023/07/10 13:48:56;;;;;;;9.38;2.55;;;;;;;;;;8322619;28;20448;-72
2023/07/10 13:52:56;;;;;;;;;;;;;;;;;;8321205;28;20024;-72
2023/07/10 13:56:58;;;;;;;3.13;2.15;;;;;;;;;;8286323;28;19908;-71
2023/07/10 14:00:59;;;;;;;6.13;1.95;;;;;;;;;;8317438;28;20033;-72
2023/07/10 14:05:00;;;;;;;5.43;1.70;;;;;;;;;;8315019;28;20903;-72
2023/07/10 14:09:06;;;;;;;3.30;1.67;;;;;;;;;;8316747;28;20754;-72
2023/07/10 14:13:09;;;;;;;3.47;1.88;;;;;;;;;;8316349;28;20114;-73
2023/07/10 14:17:12;;;;;;;5.85;1.80;;;;;;;;;;8319418;28;20517;-72
2023/07/10 14:21:13;;;;;;;2.28;1.70;;;;;;;;;;8321138;28;20032;-72
2023/07/10 14:25:15;;;;;;;4.07;1.85;;;;;;;;;;8321659;28;20035;-72
2023/07/10 14:29:15;;;;;;;;;;;;;;;;;;8304742;28;20079;-72
2023/07/10 14:33:15;;;;;;;3.77;1.57;;;;;;;;;;8302184;28;19916;-73
2023/07/10 14:37:17;;;;;;;7.15;1.98;;;;;;;;;;8321962;28;20029;-72
2023/07/10 14:41:17;;;;;;;;;;;;;;;;;;8319909;28;21395;-72
2023/07/10 14:45:18;;;;;;;2.65;1.95;;;;;;;;;;8318703;28;19912;-72
2023/07/10 14:49:18;;;;;;;2.30;1.67;;;;;;;;;;8323429;28;20063;-73
2023/07/10 14:53:19;;;;;;;2.85;2.03;;;;;;;;;;8319721;28;20033;-72
2023/07/10 14:57:30;;;;;;;4.10;2.17;;;;;;;;;;8318872;28;20482;-73
2023/07/10 15:01:30;;;;;;;2.60;2.13;;;;;;;;;;8318605;28;20052;-72
2023/07/10 15:05:31;;;;;;;4.32;2.03;;;;;;;;;;8316780;28;20563;-72
2023/07/10 15:09:31;;;;;;;3.85;2.25;;;;;;;;;;8319770;28;20020;-72
2023/07/10 15:13:32;;;;;;;3.53;2.30;;;;;;;;;;8303104;28;20032;-72
2023/07/10 15:17:32;;;;;;;2.03;1.83;;;;;;;;;;8300587;28;20072;-73
2023/07/10 15:21:32;;;;;;;2.30;2.10;;;;;;;;;;8297898;28;20564;-73
2023/07/10 15:25:32;;;;;;;2.38;2.17;;;;;;;;;;8320578;28;20036;-72
2023/07/10 15:29:33;;;;;;;2.10;1.90;;;;;;;;;;8314403;28;20033;-73
2023/07/10 15:33:34;;;;;;;2.60;2.30;;;;;;;;;;8312128;28;20669;-73
2023/07/10 15:37:35;;;;;;;3.75;2.40;;;;;;;;;;8318753;28;20032;-73
2023/07/10 15:41:37;;;;;;;2.53;2.10;;;;;;;;;;8298586;28;20036;-72
2023/07/10 15:45:37;;;;;;;2.33;2.05;;;;;;;;;;8319591;28;20505;-72
2023/07/10 15:49:38;;;;;;;3.97;2.77;;;;;;;;;;8315314;28;20405;-72
2023/07/10 15:53:38;;;;;;;4.57;3.80;;;;;;;;;;8317847;28;20575;-72
2023/07/10 15:57:38;;;;;;;6.57;4.88;;;;;;;;;;8317895;28;20029;-72
2023/07/10 16:01:39;;;;;;;3.88;3.55;;;;;;;;;;8319141;28;20036;-72
2023/07/10 16:05:39;;;;;;;3.80;2.77;;;;;;;;;;8320206;28;20026;-72
2023/07/10 16:09:39;;;;;;;2.97;2.67;;;;;;;;;;8321579;28;20053;-72
2023/07/10 16:13:39;;;;;;;3.40;2.80;;;;;;;;;;8320409;28;20114;-72
2023/07/10 16:17:40;;;;;;;3.28;3.05;;;;;;;;;;8320076;28;20044;-72
2023/07/10 16:21:41;;;;;;;3.60;3.30;;;;;;;;;;8301702;28;20034;-73
2023/07/10 16:25:41;;;;;;;4.43;3.63;;;;;;;;;;8320527;28;20275;-73
2023/07/10 16:29:41;;;;;;;3.70;3.17;;;;;;;;;;8320139;28;20033;-72
2023/07/10 16:33:42;;;;;;;5.45;3.28;;;;;;;;;;8300823;28;20044;-72
2023/07/10 16:37:42;;;;;;;3.93;3.10;;;;;;;;;;8318338;28;20024;-72
2023/07/10 16:41:42;;;;;;;4.77;3.07;;;;;;;;;;8318751;28;20506;-72
2023/07/10 16:45:44;;;;;;;3.50;3.00;;;;;;;;;;8319196;28;20748;-72
2023/07/10 16:49:44;;;;;;;3.70;2.72;;;;;;;;;;8319889;28;20033;-72
2023/07/10 16:53:44;;;;;;;3.13;2.90;;;;;;;;;;8322043;28;20036;-72
2023/07/10 16:57:46;;;;;;;3.33;2.90;;;;;;;;;;8319032;28;20032;-72
2023/07/10 17:01:46;;;;;;;3.80;2.58;;;;;;;;;;8319858;28;20037;-73
2023/07/10 17:05:46;;;;;;;4.55;2.60;;;;;;;;;;8322623;28;20019;-72
2023/07/10 17:09:46;;;;;;;4.57;3.07;;;;;;;;;;8322342;28;20028;-72
2023/07/10 17:13:47;;;;;;;3.20;2.83;;;;;;;;;;8322127;28;20040;-72
2023/07/10 17:17:47;;;;;;;3.80;2.70;;;;;;;;;;8320451;28;20916;-72
2023/07/10 17:21:47;;;;;;;3.30;3.00;;;;;;;;;;8323282;28;20031;-72
2023/07/10 17:25:48;;;;;;;4.05;2.90;;;;;;;;;;8319627;28;20021;-72
2023/07/10 17:29:48;;;;;;;3.83;3.10;;;;;;;;;;8321791;28;20024;-73
2023/07/10 17:33:50;;;;;;;3.30;3.00;;;;;;;;;;8304594;28;20135;-73
2023/07/10 17:37:52;;;;;;;3.83;3.10;;;;;;;;;;8315780;28;20033;-73
2023/07/10 17:41:53;;;;;;;5.90;3.10;;;;;;;;;;8306844;28;20156;-73
2023/07/10 17:45:53;;;;;;;4.65;3.00;;;;;;;;;;8290655;28;20375;-72
2023/07/10 17:49:53;;;;;;;4.03;2.90;;;;;;;;;;8290577;28;20021;-73
2023/07/10 17:53:54;;;;;;;3.85;3.03;;;;;;;;;;8294884;28;20026;-73
2023/07/10 17:57:57;;;;;;;3.90;2.90;;;;;;;;;;8289809;28;20033;-72
2023/07/10 18:01:58;;;;;;;3.47;3.00;;;;;;;;;;8288932;28;20746;-73
2023/07/10 18:05:59;;;;;;;4.22;3.35;;;;;;;;;;8286376;28;20030;-72
2023/07/10 18:09:59;;;;;;;3.97;3.10;;;;;;;;;;8285902;28;20021;-72
2023/07/10 18:13:59;;;;;;;4.65;3.13;;;;;;;;;;8287701;28;20025;-72
2023/07/10 18:17:59;;;;;;;7.27;3.00;;;;;;;;;;8291461;28;20036;-72
2023/07/10 18:21:59;;;;;;;5.43;3.17;;;;;;;;;;8291537;28;20116;-72
2023/07/10 18:26:00;;;;;;;4.97;3.10;;;;;;;;;;8289660;28;20072;-72
2023/07/10 18:30:03;;;;;;;6.07;3.20;;;;;;;;;;8287103;28;20132;-72
2023/07/10 18:34:03;;;;;;;4.10;3.10;;;;;;;;;;8303578;28;20041;-71
2023/07/10 18:38:11;;;;;;;8.50;3.40;;;;;;;;;;8287945;28;20545;-72
2023/07/10 18:42:18;;;;;;;5.32;3.33;;;;;;;;;;8300818;28;20025;-72
2023/07/10 18:46:22;;;;;;;3.83;2.90;;;;;;;;;;8303164;28;20033;-72
2023/07/10 18:50:22;;;;;;;4.05;3.20;;;;;;;;;;8311411;28;20518;-70
2023/07/10 18:54:23;;;;;;;3.33;3.03;;;;;;;;;;8319827;28;20099;-71
2023/07/10 18:58:25;;;;;;;4.35;3.10;;;;;;;;;;8317669;28;20047;-70
2023/07/10 19:02:26;;;;;;;6.05;2.78;;;;;;;;;;8316537;28;20033;-70
2023/07/10 19:06:27;;;;;;;4.15;3.10;;;;;;;;;;8318742;28;20023;-70
2023/07/10 19:10:28;;;;;;;5.03;3.10;;;;;;;;;;8319228;28;20017;-70
2023/07/10 19:14:28;;;;;;;8.52;2.95;;;;;;;;;;8317118;28;20028;-71
2023/07/10 19:18:33;;;;;;;6.47;2.93;;;;;;;;;;8314783;28;20051;-70
2023/07/10 19:22:34;;;;;;;4.38;3.10;;;;;;;;;;8320658;28;20283;-70
2023/07/10 19:26:34;;;;;;;4.33;2.97;;;;;;;;;;8318175;28;20033;-70
2023/07/10 19:30:35;;;;;;;4.33;2.90;;;;;;;;;;8316482;28;20041;-71
2023/07/10 19:34:35;;;;;;;2.95;2.60;;;;;;;;;;8317342;28;20024;-70
2023/07/10 19:38:38;;;;;;;4.07;2.60;;;;;;;;;;8314030;28;20032;-70
2023/07/10 19:42:38;;;;;;;4.82;2.72;;;;;;;;;;8314158;28;20504;-70
2023/07/10 19:46:38;;;;;;;3.72;2.70;;;;;;;;;;8315216;28;20071;-70
2023/07/10 19:50:39;;;;;;;6.77;2.70;;;;;;;;;;8318814;28;20102;-70
2023/07/10 19:54:40;;;;;;;6.57;3.07;;;;;;;;;;8301537;28;20658;-70
2023/07/10 19:58:42;;;;;;;6.65;2.72;;;;;;;;;;8315334;28;20441;-70
2023/07/10 20:02:43;;;;;;;3.17;2.57;;;;;;;;;;8312117;28;20892;-70
2023/07/10 20:06:46;;;;;;;5.63;2.60;;;;;;;;;;8314932;28;20382;-72
2023/07/10 20:10:48;;;;;;;4.55;2.65;;;;;;;;;;8307582;28;20028;-72
2023/07/10 20:14:48;;;;;;;3.88;2.60;;;;;;;;;;8302621;28;20055;-71
2023/07/10 20:18:48;;;;;;;5.57;2.60;;;;;;;;;;8305029;28;20049;-71
2023/07/10 20:22:49;;;;;;;3.50;2.70;;;;;;;;;;8303461;28;20035;-71
2023/07/10 20:26:49;;;;;;;6.15;2.55;;;;;;;;;;8301461;28;20154;-71
2023/07/10 20:30:51;;;;;;;3.67;2.72;;;;;;;;;;8303325;28;20029;-71
2023/07/10 20:34:51;;;;;;;5.13;2.35;;;;;;;;;;8303194;28;20166;-72
2023/07/10 20:38:52;;;;;;;5.33;2.37;;;;;;;;;;8304023;28;20122;-72
2023/07/10 20:42:53;;;;;;;4.07;2.63;;;;;;;;;;8301260;28;20028;-72
2023/07/10 20:46:53;;;;;;;4.90;2.65;;;;;;;;;;8306150;28;20044;-72
2023/07/10 20:50:55;;;;;;;2.78;2.35;;;;;;;;;;8321073;28;20994;-72
2023/07/10 20:54:55;;;;;;;2.53;2.30;;;;;;;;;;8321421;28;20470;-72
2023/07/10 20:58:56;;;;;;;5.85;2.53;;;;;;;;;;8316910;28;20029;-72
2023/07/10 21:02:56;;;;;;;3.50;2.47;;;;;;;;;;8311667;28;20076;-72
2023/07/10 21:07:00;;;;;;;3.03;2.50;;;;;;;;;;8280749;28;20045;-72
2023/07/10 21:11:01;;;;;;;2.40;2.20;;;;;;;;;;8309679;28;20044;-72
2023/07/10 21:15:01;;;;;;;3.35;2.47;;;;;;;;;;8321736;28;20017;-72
2023/07/10 21:19:04;;;;;;;4.13;2.27;;;;;;;;;;8317642;28;20041;-72
2023/07/10 21:23:04;;;;;;;;;;;;;;;;;;8325311;28;20144;-72
2023/07/10 21:27:17;;;;;;;6.28;2.65;;;;;;;;;;8324179;28;19983;-72
2023/07/10 21:31:22;;;;;;;2.83;2.42;;;;;;;;;;8327914;28;20033;-72
2023/07/10 21:35:27;;;;;;;3.95;2.08;;;;;;;;;;8326944;28;20029;-72
2023/07/10 21:39:27;;;;;;;2.72;2.20;;;;;;;;;;8326359;28;20040;-72
2023/07/10 21:43:29;;;;;;;6.82;2.10;;;;;;;;;;8325584;28;20025;-72
2023/07/10 21:47:29;;;;;;;2.38;1.95;;;;;;;;;;8326616;28;20056;-72
2023/07/10 21:51:30;;;;;;;2.08;1.88;;;;;;;;;;8324690;28;20033;-72
2023/07/10 21:55:30;;;;;;;3.83;2.22;;;;;;;;;;8322282;28;20025;-72
2023/07/10 21:59:32;;;;;;;3.80;2.40;;;;;;;;;;8325057;28;20205;-72
2023/07/10 22:03:36;;;;;;;2.70;2.00;;;;;;;;;;8320647;28;20033;-72
2023/07/10 22:07:36;;;;;;;3.80;2.10;;;;;;;;;;8323007;28;20020;-72
2023/07/10 22:11:37;;;;;;;3.00;2.10;;;;;;;;;;8322646;28;20055;-72
2023/07/10 22:15:38;;;;;;;4.47;2.20;;;;;;;;;;8321683;28;20037;-71
2023/07/10 22:19:38;;;;;;;2.58;1.90;;;;;;;;;;8324975;28;20075;-72
2023/07/10 22:23:38;;;;;;;3.22;2.30;;;;;;;;;;8325809;28;20101;-71
2023/07/10 22:27:38;;;;;;;4.10;2.20;;;;;;;;;;8326011;28;20394;-70
2023/07/10 22:31:39;;;;;;;3.80;2.30;;;;;;;;;;8325643;28;20035;-71
2023/07/10 22:35:40;;;;;;;3.63;2.22;;;;;;;;;;8318351;28;20040;-71
2023/07/10 22:39:40;;;;;;;2.33;2.00;;;;;;;;;;8308060;28;20767;-71
2023/07/10 22:43:42;;;;;;;2.47;2.00;;;;;;;;;;8306053;28;20029;-71
2023/07/10 22:47:42;;;;;;;3.88;2.03;;;;;;;;;;8322994;28;20087;-71
2023/07/10 22:51:43;;;;;;;2.55;1.73;;;;;;;;;;8307323;28;20033;-70
2023/07/10 22:55:43;;;;;;;3.88;2.05;;;;;;;;;;8323486;28;20025;-71
2023/07/10 22:59:43;;;;;;;2.13;1.92;;;;;;;;;;8326084;28;20047;-71
2023/07/10 23:03:44;;;;;;;3.30;1.95;;;;;;;;;;8323366;28;20029;-71
2023/07/10 23:07:45;;;;;;;2.30;2.10;;;;;;;;;;8325572;28;20032;-71
2023/07/10 23:11:45;;;;;;;2.40;2.00;;;;;;;;;;8320912;28;20029;-71
2023/07/10 23:15:45;;;;;;;2.40;1.98;;;;;;;;;;8306361;28;20068;-71
2023/07/10 23:19:46;;;;;;;2.10;1.90;;;;;;;;;;8320892;28;20158;-71
2023/07/10 23:23:46;;;;;;;2.55;2.10;;;;;;;;;;8319743;28;20028;-71
2023/07/10 23:27:46;;;;;;;2.50;2.30;;;;;;;;;;8319794;28;21038;-71
2023/07/10 23:31:47;;;;;;;2.90;1.90;;;;;;;;;;8322132;28;20614;-71
2023/07/10 23:35:47;;;;;;;2.47;2.17;;;;;;;;;;8323125;28;20036;-71
2023/07/10 23:39:47;;;;;;;2.35;2.00;;;;;;;;;;8324261;28;20283;-71
2023/07/10 23:43:47;;;;;;;3.10;2.00;;;;;;;;;;8322422;28;20143;-70
2023/07/10 23:47:49;;;;;;;3.47;2.10;;;;;;;;;;8309160;28;20032;-71
2023/07/10 23:51:49;;;;;;;2.35;1.80;;;;;;;;;;8321913;28;20914;-71
2023/07/10 23:55:49;;;;;;;3.53;1.90;;;;;;;;;;8323082;28;20040;-71
2023/07/10 23:59:49;;;;;;;1.97;1.70;;;;;;;;;;8322653;28;20107;-72
